createdAt,value
2017-06-26T00:02:20.195Z,4.03
2017-06-26T00:04:47.927Z,3.20
2017-06-26T00:07:16.425Z,4.43
2017-06-26T00:09:44.184Z,4.00
2017-06-26T00:12:11.924Z,4.65
2017-06-26T00:14:40.497Z,3.80
2017-06-26T00:17:08.228Z,3.72
2017-06-26T00:19:35.955Z,4.68
2017-06-26T00:22:03.712Z,3.87
2017-06-26T00:24:31.439Z,4.12
2017-06-26T00:26:59.204Z,4.22
2017-06-26T00:29:27.700Z,4.22
2017-06-26T00:31:56.194Z,4.45
2017-06-26T00:34:23.951Z,4.80
2017-06-26T00:36:51.681Z,4.40
2017-06-26T00:39:19.444Z,5.00
2017-06-26T00:41:47.171Z,5.18
2017-06-26T00:44:14.894Z,4.35
2017-06-26T00:46:42.653Z,5.45
2017-06-26T00:49:10.384Z,4.95
2017-06-26T00:51:38.158Z,5.60
2017-06-26T00:54:06.661Z,4.72
2017-06-26T00:56:34.391Z,4.18
2017-06-26T00:59:02.915Z,4.40
2017-06-26T01:01:30.640Z,4.50
2017-06-26T01:03:58.410Z,4.57
2017-06-26T01:06:26.143Z,4.60
2017-06-26T01:08:53.884Z,4.90
2017-06-26T01:11:21.644Z,4.87
2017-06-26T01:13:49.384Z,4.90
2017-06-26T01:16:17.154Z,5.62
2017-06-26T01:18:44.905Z,5.47
2017-06-26T01:21:12.632Z,4.47
2017-06-26T01:23:41.168Z,4.68
2017-06-26T01:26:08.896Z,5.47
2017-06-26T01:28:36.669Z,4.40
2017-06-26T01:31:04.400Z,5.10
2017-06-26T01:33:32.128Z,5.30
2017-06-26T01:35:59.895Z,5.80
2017-06-26T01:38:27.643Z,5.68
2017-06-26T01:40:55.423Z,5.03
2017-06-26T01:43:23.924Z,4.80
2017-06-26T01:45:51.656Z,5.07
2017-06-26T01:48:19.415Z,5.15
2017-06-26T01:50:47.144Z,4.68
2017-06-26T02:05:13.267Z,4.40
2017-06-26T02:07:41.007Z,4.47
2017-06-26T02:10:09.184Z,4.78
2017-06-26T02:12:36.918Z,4.50
2017-06-26T02:15:04.723Z,4.97
2017-06-26T02:17:32.498Z,4.05
2017-06-26T02:20:00.229Z,4.62
2017-06-26T02:22:27.956Z,5.03
2017-06-26T02:24:55.728Z,5.15
2017-06-26T02:27:23.464Z,4.72
2017-06-26T02:29:51.960Z,4.95
2017-06-26T02:32:19.720Z,4.70
2017-06-26T02:34:47.455Z,5.18
2017-06-26T02:37:15.962Z,5.22
2017-06-26T02:39:43.725Z,4.37
2017-06-26T02:42:11.465Z,4.75
2017-06-26T02:44:39.973Z,5.40
2017-06-26T02:47:07.749Z,5.22
2017-06-26T02:49:35.485Z,5.70
2017-06-26T02:52:03.212Z,4.65
2017-06-26T02:54:30.977Z,4.90
2017-06-26T02:56:59.488Z,5.85
2017-06-26T02:59:27.257Z,5.53
2017-06-26T03:01:55.060Z,6.05
2017-06-26T03:04:22.819Z,6.05
2017-06-26T03:06:50.585Z,5.72
2017-06-26T03:09:18.320Z,6.47
2017-06-26T03:11:58.046Z,5.72
2017-06-26T03:14:25.781Z,5.50
2017-06-26T03:16:53.583Z,4.90
2017-06-26T03:19:21.323Z,5.87
2017-06-26T03:21:49.064Z,4.53
2017-06-26T03:24:17.607Z,5.10
2017-06-26T03:26:45.352Z,4.93
2017-06-26T03:29:13.126Z,4.53
2017-06-26T03:31:40.860Z,5.22
2017-06-26T03:34:08.609Z,4.87
2017-06-26T03:36:36.371Z,5.18
2017-06-26T03:39:04.140Z,4.85
2017-06-26T03:41:31.910Z,5.53
2017-06-26T03:43:59.644Z,5.65
2017-06-26T03:46:27.384Z,5.55
2017-06-26T03:48:55.920Z,5.40
2017-06-26T03:51:23.650Z,5.22
2017-06-26T03:53:51.427Z,6.68
2017-06-26T03:56:19.163Z,5.70
2017-06-26T03:58:46.899Z,5.40
2017-06-26T04:01:15.433Z,4.10
2017-06-26T04:03:43.164Z,5.20
2017-06-26T04:06:10.939Z,5.18
2017-06-26T04:08:38.668Z,4.93
2017-06-26T04:11:07.159Z,5.70
2017-06-26T04:13:35.730Z,5.22
2017-06-26T04:16:03.469Z,5.35
2017-06-26T04:18:31.244Z,5.32
2017-06-26T04:20:59.738Z,4.65
2017-06-26T04:23:27.464Z,4.85
2017-06-26T04:25:55.238Z,5.25
2017-06-26T04:28:22.968Z,5.72
2017-06-26T04:30:50.744Z,5.50
2017-06-26T04:33:18.485Z,4.97
2017-06-26T04:35:46.218Z,5.22
2017-06-26T04:38:13.976Z,5.40
2017-06-26T04:40:41.705Z,5.15
2017-06-26T04:43:09.481Z,6.62
2017-06-26T04:45:37.980Z,5.32
2017-06-26T04:48:05.737Z,5.35
2017-06-26T04:50:33.517Z,5.37
2017-06-26T04:53:01.253Z,7.35
2017-06-26T04:55:29.034Z,6.97
2017-06-26T04:57:56.801Z,6.25
2017-06-26T05:00:24.540Z,6.28
2017-06-26T05:02:52.299Z,6.53
2017-06-26T05:05:20.797Z,6.53
2017-06-26T05:07:48.582Z,5.03
2017-06-26T05:10:16.312Z,5.37
2017-06-26T05:12:44.057Z,4.68
2017-06-26T05:15:12.594Z,5.12
2017-06-26T05:17:40.332Z,5.57
2017-06-26T05:20:08.101Z,6.68
2017-06-26T05:22:35.836Z,5.43
2017-06-26T05:25:03.577Z,5.87
2017-06-26T05:27:32.113Z,5.20
2017-06-26T05:29:59.851Z,5.40
2017-06-26T05:32:27.629Z,5.70
2017-06-26T05:34:55.369Z,5.97
2017-06-26T05:37:23.108Z,6.75
2017-06-26T05:39:50.871Z,5.10
2017-06-26T05:42:18.600Z,4.40
2017-06-26T05:44:46.384Z,5.05
2017-06-26T05:47:14.903Z,5.87
2017-06-26T05:49:42.646Z,4.95
2017-06-26T05:52:10.432Z,5.97
2017-06-26T05:54:38.187Z,5.25
2017-06-26T05:57:05.961Z,5.50
2017-06-26T05:59:33.699Z,5.47
2017-06-26T06:02:01.448Z,5.80
2017-06-26T06:04:29.216Z,4.60
2017-06-26T06:06:56.969Z,4.30
2017-06-26T06:09:24.745Z,4.30
2017-06-26T06:11:52.476Z,4.57
2017-06-26T06:14:20.980Z,3.70
2017-06-26T06:16:48.748Z,3.85
2017-06-26T06:19:16.484Z,4.82
2017-06-26T06:21:44.264Z,4.53
2017-06-26T06:24:11.999Z,6.12
2017-06-26T06:26:40.509Z,4.93
2017-06-26T06:29:08.271Z,5.20
2017-06-26T06:31:35.998Z,4.40
2017-06-26T06:34:04.541Z,3.67
2017-06-26T06:36:32.268Z,4.20
2017-06-26T06:38:59.997Z,6.18
2017-06-26T06:41:28.556Z,5.12
2017-06-26T06:43:56.289Z,4.43
2017-06-26T06:46:24.067Z,4.87
2017-06-26T06:48:51.804Z,4.75
2017-06-26T06:51:19.544Z,3.50
2017-06-26T06:53:47.304Z,3.07
2017-06-26T06:56:15.044Z,3.37
2017-06-26T06:58:43.600Z,3.50
2017-06-26T07:01:11.355Z,2.77
2017-06-26T07:03:39.111Z,3.33
2017-06-26T07:06:06.872Z,3.67
2017-06-26T07:08:34.612Z,3.30
2017-06-26T07:11:02.385Z,4.37
2017-06-26T07:13:30.112Z,3.17
2017-06-26T07:15:57.856Z,3.67
2017-06-26T07:18:25.614Z,3.67
2017-06-26T07:20:53.343Z,3.43
2017-06-26T07:23:21.111Z,3.47
2017-06-26T07:25:48.848Z,8.00
2017-06-26T07:28:16.598Z,3.40
2017-06-26T07:30:44.363Z,2.87
2017-06-26T07:33:12.088Z,4.00
2017-06-26T07:35:39.872Z,4.40
2017-06-26T07:38:07.597Z,4.17
2017-06-26T07:40:35.328Z,3.30
2017-06-26T07:43:03.127Z,3.90
2017-06-26T07:45:30.864Z,3.67
2017-06-26T07:47:59.422Z,4.95
2017-06-26T07:50:27.156Z,3.95
2017-06-26T07:52:54.889Z,3.30
2017-06-26T07:55:23.422Z,2.90
2017-06-26T07:57:51.165Z,4.15
2017-06-26T08:00:18.953Z,3.45
2017-06-26T08:02:46.688Z,3.85
2017-06-26T08:05:14.430Z,3.90
2017-06-26T08:07:42.196Z,3.72
2017-06-26T08:10:09.924Z,5.93
2017-06-26T08:12:38.468Z,4.20
2017-06-26T08:15:06.202Z,4.10
2017-06-26T08:17:33.939Z,4.70
2017-06-26T08:20:01.699Z,6.07
2017-06-26T08:22:29.433Z,3.65
2017-06-26T08:24:57.210Z,5.80
2017-06-26T08:27:25.691Z,4.20
2017-06-26T08:29:54.184Z,4.97
2017-06-26T08:32:21.952Z,3.28
2017-06-26T08:34:49.681Z,3.85
2017-06-26T08:37:18.233Z,3.95
2017-06-26T08:39:45.978Z,6.12
2017-06-26T08:42:13.690Z,3.00
2017-06-26T08:44:42.211Z,5.03
2017-06-26T08:47:09.938Z,5.65
2017-06-26T08:49:37.710Z,5.68
2017-06-26T08:52:05.438Z,4.43
2017-06-26T08:54:33.166Z,5.65
2017-06-26T08:57:00.919Z,3.95
2017-06-26T08:59:28.647Z,3.40
2017-06-26T09:01:56.419Z,2.37
2017-06-26T09:04:24.147Z,3.00
2017-06-26T09:06:52.633Z,1.83
2017-06-26T09:09:21.154Z,2.00
2017-06-26T09:11:48.876Z,3.53
2017-06-26T09:14:17.403Z,3.25
2017-06-26T09:16:45.119Z,2.00
2017-06-26T09:19:12.843Z,2.00
2017-06-26T09:21:40.603Z,1.80
2017-06-26T09:24:08.335Z,3.40
2017-06-26T09:26:36.098Z,2.40
2017-06-26T09:29:03.823Z,4.60
2017-06-26T09:31:31.578Z,1.40
2017-06-26T09:33:59.344Z,2.03
2017-06-26T09:36:27.068Z,2.50
2017-06-26T09:38:54.835Z,4.57
2017-06-26T09:41:22.559Z,1.70
2017-06-26T09:43:50.284Z,1.40
2017-06-26T09:46:18.803Z,2.15
2017-06-26T09:48:46.534Z,1.85
2017-06-26T09:51:14.298Z,1.48
2017-06-26T09:53:42.022Z,1.40
2017-06-26T09:56:09.775Z,1.52
2017-06-26T09:58:37.535Z,1.70
2017-06-26T10:01:05.270Z,1.95
2017-06-26T10:03:33.051Z,1.20
2017-06-26T10:06:00.772Z,3.42
2017-06-26T10:08:28.503Z,2.58
2017-06-26T10:10:57.080Z,9.70
2017-06-26T10:13:24.802Z,2.00
2017-06-26T10:15:52.557Z,2.00
2017-06-26T10:18:20.280Z,2.37
2017-06-26T10:20:48.767Z,1.40
2017-06-26T10:23:16.531Z,2.45
2017-06-26T10:25:44.245Z,1.73
2017-06-26T10:28:12.006Z,1.92
2017-06-26T10:30:39.733Z,2.37
2017-06-26T10:33:07.463Z,1.75
2017-06-26T10:35:35.222Z,2.15
2017-06-26T10:38:03.721Z,2.40
2017-06-26T10:40:31.484Z,2.30
2017-06-26T10:42:59.258Z,4.28
2017-06-26T10:45:26.974Z,3.78
2017-06-26T10:47:55.491Z,3.60
2017-06-26T10:50:23.212Z,2.62
2017-06-26T10:52:51.746Z,3.20
2017-06-26T10:55:19.470Z,2.58
2017-06-26T10:57:47.190Z,2.00
2017-06-26T11:00:14.947Z,2.97
2017-06-26T11:02:42.675Z,1.73
2017-06-26T11:05:10.447Z,2.35
2017-06-26T11:07:38.161Z,2.00
2017-06-26T11:10:06.652Z,2.08
2017-06-26T11:12:34.408Z,1.90
2017-06-26T11:15:02.894Z,2.50
2017-06-26T11:17:30.659Z,1.52
2017-06-26T11:19:58.387Z,1.77
2017-06-26T11:22:26.107Z,1.87
2017-06-26T11:24:53.859Z,2.00
2017-06-26T11:27:21.604Z,1.83
2017-06-26T11:29:49.377Z,2.10
2017-06-26T11:32:17.100Z,1.30
2017-06-26T11:34:45.596Z,2.12
2017-06-26T11:37:13.351Z,1.85
2017-06-26T11:39:41.848Z,4.40
2017-06-26T11:42:09.609Z,1.90
2017-06-26T11:44:37.340Z,1.80
2017-06-26T11:47:05.831Z,1.62
2017-06-26T11:49:34.342Z,2.42
2017-06-26T11:52:02.084Z,2.40
2017-06-26T11:54:29.854Z,2.50
2017-06-26T11:56:57.570Z,2.62
2017-06-26T11:59:25.298Z,2.58
2017-06-26T12:01:53.050Z,1.80
2017-06-26T12:04:20.781Z,1.90
2017-06-26T12:06:48.541Z,3.50
2017-06-26T12:09:16.356Z,2.85
2017-06-26T12:11:44.079Z,2.75
2017-06-26T12:14:11.833Z,2.25
2017-06-26T12:16:39.550Z,2.10
2017-06-26T12:19:07.307Z,1.80
2017-06-26T12:21:35.034Z,3.05
2017-06-26T12:24:02.814Z,2.60
2017-06-26T12:26:30.533Z,2.62
2017-06-26T12:28:58.262Z,2.45
2017-06-26T12:31:26.014Z,2.15
2017-06-26T12:33:53.734Z,2.00
2017-06-26T12:36:21.499Z,2.22
2017-06-26T12:38:49.219Z,2.50
2017-06-26T12:41:17.707Z,2.15
2017-06-26T12:43:45.491Z,3.40
2017-06-26T12:46:13.228Z,2.20
2017-06-26T12:48:41.753Z,3.08
2017-06-26T12:51:09.480Z,2.28
2017-06-26T12:53:37.204Z,2.22
2017-06-26T12:56:04.972Z,2.12
2017-06-26T12:58:33.466Z,2.53
2017-06-26T13:01:01.994Z,2.25
2017-06-26T13:03:29.714Z,2.40
2017-06-26T13:05:57.444Z,2.50
2017-06-26T13:08:25.200Z,2.25
2017-06-26T13:10:52.931Z,3.10
2017-06-26T13:13:20.694Z,2.33
2017-06-26T13:15:48.405Z,2.37
2017-06-26T13:18:16.893Z,1.85
2017-06-26T13:20:44.645Z,2.70
2017-06-26T13:23:13.131Z,3.20
2017-06-26T13:25:41.660Z,3.40
2017-06-26T13:28:09.379Z,3.42
2017-06-26T13:30:37.111Z,3.50
2017-06-26T13:33:04.869Z,2.80
2017-06-26T13:35:32.598Z,2.62
2017-06-26T13:38:00.363Z,3.15
2017-06-26T13:40:28.086Z,4.03
2017-06-26T13:42:55.813Z,4.00
2017-06-26T13:45:23.570Z,4.50
2017-06-26T13:47:51.299Z,5.80
2017-06-26T13:50:19.089Z,3.60
2017-06-26T13:52:46.807Z,3.95
2017-06-26T13:55:14.534Z,4.55
2017-06-26T13:57:43.059Z,2.95
2017-06-26T14:00:10.831Z,2.85
2017-06-26T14:02:38.595Z,3.87
2017-06-26T14:05:06.368Z,2.90
2017-06-26T14:07:34.098Z,3.50
2017-06-26T14:10:01.862Z,3.45
2017-06-26T14:12:29.598Z,3.95
2017-06-26T14:14:57.368Z,3.47
2017-06-26T14:17:25.098Z,3.90
2017-06-26T14:19:53.601Z,3.45
2017-06-26T14:22:21.371Z,3.28
2017-06-26T14:24:49.098Z,2.97
2017-06-26T14:27:17.618Z,4.40
2017-06-26T14:29:45.344Z,3.67
2017-06-26T14:32:13.076Z,3.90
2017-06-26T14:34:40.829Z,2.75
2017-06-26T14:37:08.553Z,3.40
2017-06-26T14:39:36.321Z,3.58
2017-06-26T14:42:04.041Z,4.72
2017-06-26T14:44:32.530Z,3.95
2017-06-26T14:47:01.050Z,4.45
2017-06-26T14:49:28.770Z,4.65
2017-06-26T14:51:57.295Z,5.85
2017-06-26T14:54:25.034Z,5.45
2017-06-26T14:56:52.776Z,5.43
2017-06-26T14:59:20.535Z,4.90
2017-06-26T15:01:48.254Z,4.75
2017-06-26T15:04:16.024Z,4.80
2017-06-26T15:06:43.746Z,5.43
2017-06-26T15:09:11.498Z,4.75
2017-06-26T15:11:39.265Z,4.10
2017-06-26T15:14:06.985Z,3.95
2017-06-26T15:16:35.510Z,3.15
2017-06-26T15:19:03.236Z,4.45
2017-06-26T15:21:31.735Z,3.25
2017-06-26T15:23:59.485Z,3.00
2017-06-26T15:26:27.212Z,3.70
2017-06-26T15:28:54.970Z,4.03
2017-06-26T15:31:22.700Z,3.60
2017-06-26T15:33:50.423Z,3.90
2017-06-26T15:36:18.184Z,2.95
2017-06-26T15:38:45.970Z,2.83
2017-06-26T15:41:13.846Z,3.80
2017-06-26T15:43:41.567Z,3.08
2017-06-26T15:46:09.345Z,2.70
2017-06-26T15:48:37.095Z,3.03
2017-06-26T15:51:04.822Z,2.53
2017-06-26T15:53:32.624Z,2.95
2017-06-26T15:56:00.356Z,2.42
2017-06-26T15:58:28.856Z,2.85
2017-06-26T16:00:56.628Z,3.45
2017-06-26T16:03:24.363Z,3.08
2017-06-26T16:05:52.909Z,3.55
2017-06-26T16:08:20.662Z,2.80
2017-06-26T16:10:48.405Z,2.87
2017-06-26T16:13:16.173Z,2.40
2017-06-26T16:15:43.956Z,3.12
2017-06-26T16:18:11.756Z,2.28
2017-06-26T16:20:40.263Z,2.00
2017-06-26T16:23:08.014Z,2.50
2017-06-26T16:25:35.781Z,2.22
2017-06-26T16:28:03.505Z,2.05
2017-06-26T16:30:31.284Z,2.03
2017-06-26T16:32:59.028Z,1.15
2017-06-26T16:35:27.581Z,1.25
2017-06-26T16:37:55.357Z,0.93
2017-06-26T16:40:23.101Z,1.33
2017-06-26T16:42:50.888Z,1.42
2017-06-26T16:45:18.624Z,1.75
2017-06-26T16:47:46.360Z,1.50
2017-06-26T16:50:14.149Z,1.40
2017-06-26T16:52:42.109Z,1.30
2017-06-26T16:55:09.888Z,1.90
2017-06-26T16:57:37.751Z,1.48
2017-06-26T17:00:06.271Z,1.23
2017-06-26T17:02:34.045Z,1.30
2017-06-26T17:05:01.783Z,1.45
2017-06-26T17:07:30.338Z,1.25
2017-06-26T17:09:58.078Z,1.20
2017-06-26T17:12:25.815Z,1.00
2017-06-26T17:14:53.612Z,1.70
2017-06-26T17:17:21.352Z,1.55
2017-06-26T17:19:49.141Z,1.98
2017-06-26T17:22:16.880Z,1.48
2017-06-26T17:24:44.614Z,1.20
2017-06-26T17:27:12.389Z,1.52
2017-06-26T17:29:40.116Z,1.23
2017-06-26T17:32:07.886Z,2.53
2017-06-26T17:34:35.625Z,1.17
2017-06-26T17:37:04.128Z,1.58
2017-06-26T17:39:31.888Z,1.80
2017-06-26T17:41:59.688Z,1.85
2017-06-26T17:44:27.462Z,1.87
2017-06-26T17:46:55.211Z,1.52
2017-06-26T17:49:22.946Z,1.70
2017-06-26T17:51:50.721Z,1.80
2017-06-26T17:54:18.459Z,3.12
2017-06-26T17:56:46.240Z,1.75
2017-06-26T17:59:13.971Z,1.80
2017-06-26T18:01:41.713Z,1.85
2017-06-26T18:04:10.245Z,1.05
2017-06-26T18:06:37.985Z,1.42
2017-06-26T18:09:05.755Z,1.75
2017-06-26T18:11:33.487Z,1.60
2017-06-26T18:14:01.223Z,1.30
2017-06-26T18:16:28.992Z,1.30
2017-06-26T18:18:56.756Z,1.55
2017-06-26T18:21:25.296Z,1.65
2017-06-26T18:23:53.036Z,2.35
2017-06-26T18:26:21.077Z,1.73
2017-06-26T18:28:49.610Z,2.30
2017-06-26T18:31:17.353Z,2.05
2017-06-26T18:33:45.131Z,2.17
2017-06-26T18:36:12.861Z,1.80
2017-06-26T18:38:40.605Z,1.40
2017-06-26T18:41:08.372Z,2.22
2017-06-26T18:43:36.114Z,2.08
2017-06-26T18:46:04.653Z,2.22
2017-06-26T18:48:32.387Z,1.92
2017-06-26T18:51:00.116Z,2.05
2017-06-26T18:53:28.673Z,1.77
2017-06-26T18:55:56.411Z,2.22
2017-06-26T18:58:24.219Z,2.83
2017-06-26T19:00:52.719Z,2.37
2017-06-26T19:03:20.671Z,3.15
2017-06-26T19:05:49.195Z,5.55
2017-06-26T19:08:16.976Z,5.95
2017-06-26T19:10:44.755Z,6.93
2017-06-26T19:13:12.487Z,5.75
2017-06-26T19:15:40.227Z,7.32
2017-06-26T19:18:07.997Z,6.10
2017-06-26T19:20:35.732Z,6.55
2017-06-26T19:23:03.521Z,5.10
2017-06-26T19:25:31.252Z,3.58
2017-06-26T19:27:58.988Z,4.20
2017-06-26T19:30:26.757Z,4.28
2017-06-26T19:32:55.252Z,3.75
2017-06-26T19:35:23.029Z,2.95
2017-06-26T19:37:50.765Z,2.75
2017-06-26T19:40:19.277Z,2.25
2017-06-26T19:42:47.061Z,2.85
2017-06-26T19:45:14.797Z,2.55
2017-06-26T19:47:42.572Z,2.92
2017-06-26T19:50:10.303Z,2.10
2017-06-26T19:52:38.040Z,3.10
2017-06-26T19:55:06.573Z,2.97
2017-06-26T19:57:34.300Z,2.95
2017-06-26T20:00:02.072Z,2.70
2017-06-26T20:02:29.808Z,2.95
2017-06-26T20:04:58.302Z,2.80
2017-06-26T20:07:26.070Z,2.65
2017-06-26T20:09:53.815Z,2.22
2017-06-26T20:12:22.354Z,2.60
2017-06-26T20:14:50.083Z,2.30
2017-06-26T20:17:17.852Z,2.58
2017-06-26T20:19:45.613Z,2.78
2017-06-26T20:22:13.344Z,2.95
2017-06-26T20:24:41.112Z,2.72
2017-06-26T20:27:08.849Z,3.78
2017-06-26T20:29:37.374Z,3.08
2017-06-26T20:32:05.133Z,2.62
2017-06-26T20:34:32.872Z,2.60
2017-06-26T20:37:00.673Z,3.20
2017-06-26T20:39:30.200Z,3.25
2017-06-26T20:41:57.935Z,9.48
2017-06-26T20:44:25.712Z,3.83
2017-06-26T20:46:53.444Z,3.70
2017-06-26T20:49:21.220Z,4.43
2017-06-26T20:51:48.957Z,4.12
2017-06-26T20:54:16.697Z,3.85
2017-06-26T20:56:45.229Z,3.90
2017-06-26T20:59:12.963Z,4.55
2017-06-26T21:01:40.735Z,7.80
2017-06-26T21:04:08.477Z,6.20
2017-06-26T21:06:36.210Z,5.68
2017-06-26T21:09:04.762Z,4.93
2017-06-26T21:11:32.492Z,4.25
2017-06-26T21:14:00.268Z,4.35
2017-06-26T21:16:28.001Z,3.60
2017-06-26T21:18:55.738Z,6.00
2017-06-26T21:21:24.260Z,6.07
2017-06-26T21:23:51.990Z,4.85
2017-06-26T21:26:19.767Z,5.37
2017-06-26T21:28:47.500Z,5.75
2017-06-26T21:31:16.017Z,5.80
2017-06-26T21:33:43.799Z,5.70
2017-06-26T21:36:11.556Z,3.90
2017-06-26T21:38:39.468Z,4.87
2017-06-26T21:41:07.306Z,4.90
2017-06-26T21:43:35.053Z,5.40
2017-06-26T21:46:02.830Z,7.90
2017-06-26T21:48:30.561Z,7.37
2017-06-26T21:50:58.332Z,6.03
2017-06-26T21:53:26.063Z,5.90
2017-06-26T21:55:53.792Z,5.80
2017-06-26T21:58:22.339Z,6.32
2017-06-26T22:00:50.072Z,4.80
2017-06-26T22:03:17.845Z,5.70
2017-06-26T22:05:45.577Z,4.12
2017-06-26T22:08:13.308Z,5.80
2017-06-26T22:10:41.443Z,4.45
2017-06-26T22:13:09.216Z,4.35
2017-06-26T22:15:36.984Z,4.45
2017-06-26T22:18:04.793Z,3.70
2017-06-26T22:20:32.570Z,4.68
2017-06-26T22:23:00.378Z,4.45
2017-06-26T22:25:28.159Z,4.60
2017-06-26T22:27:56.744Z,4.12
2017-06-26T22:30:25.336Z,4.43
2017-06-26T22:32:53.097Z,4.70
2017-06-26T22:35:28.369Z,4.05
2017-06-26T22:37:56.113Z,4.68
2017-06-26T22:43:56.304Z,3.70
2017-06-26T22:49:45.708Z,4.85
2017-06-26T22:55:29.247Z,6.37
2017-06-26T22:58:06.881Z,7.05
2017-06-26T23:00:47.318Z,5.15
2017-06-26T23:06:56.072Z,5.07
2017-06-26T23:12:22.294Z,6.15
2017-06-26T23:20:26.786Z,6.00
2017-06-26T23:22:54.815Z,5.65
2017-06-26T23:25:22.610Z,5.97
2017-06-26T23:27:50.375Z,9.20
2017-06-26T23:30:18.203Z,9.02
2017-06-26T23:32:46.018Z,14.00
2017-06-26T23:35:13.780Z,12.25
2017-06-26T23:37:41.570Z,13.48
2017-06-26T23:40:10.104Z,13.00
2017-06-26T23:42:37.928Z,18.37
2017-06-26T23:45:05.678Z,15.70
2017-06-26T23:47:33.432Z,16.10
2017-06-26T23:50:01.982Z,25.85
2017-06-26T23:52:29.732Z,25.30
2017-06-26T23:54:57.518Z,26.12
2017-06-26T23:57:25.275Z,22.92
2017-06-26T23:59:53.030Z,24.48
